createdAt,value
2019-01-16T00:00:43.758Z,15.00
2019-01-16T00:01:43.912Z,13.50
2019-01-16T00:02:44.045Z,13.70
2019-01-16T00:03:44.228Z,14.50
2019-01-16T00:04:44.355Z,11.30
2019-01-16T00:05:44.513Z,12.00
2019-01-16T00:06:44.666Z,9.20
2019-01-16T00:07:44.795Z,12.90
2019-01-16T00:08:44.956Z,12.80
2019-01-16T00:09:45.110Z,12.30
2019-01-16T00:10:45.294Z,14.60
2019-01-16T00:11:45.539Z,9.30
2019-01-16T00:12:45.568Z,13.20
2019-01-16T00:13:45.715Z,13.40
2019-01-16T00:14:45.892Z,15.80
2019-01-16T00:15:46.039Z,14.90
2019-01-16T00:16:46.202Z,11.00
2019-01-16T00:17:46.350Z,13.20
2019-01-16T00:18:46.499Z,14.30
2019-01-16T00:19:46.698Z,10.70
2019-01-16T00:20:46.897Z,12.90
2019-01-16T00:21:46.998Z,12.60
2019-01-16T00:22:47.113Z,11.60
2019-01-16T00:23:47.265Z,9.80
2019-01-16T00:24:47.441Z,12.10
2019-01-16T00:25:47.572Z,12.30
2019-01-16T00:26:47.745Z,11.30
2019-01-16T00:27:47.895Z,12.90
2019-01-16T00:28:48.188Z,12.60
2019-01-16T00:29:48.224Z,10.50
2019-01-16T00:30:48.361Z,12.30
2019-01-16T00:31:48.517Z,9.50
2019-01-16T00:32:48.667Z,11.60
2019-01-16T00:33:48.817Z,11.30
2019-01-16T00:34:48.992Z,9.50
2019-01-16T00:35:49.354Z,10.40
2019-01-16T00:36:49.373Z,10.00
2019-01-16T00:37:49.438Z,11.80
2019-01-16T00:38:49.600Z,8.20
2019-01-16T00:39:49.769Z,9.80
2019-01-16T00:40:49.906Z,10.80
2019-01-16T00:41:50.078Z,11.00
2019-01-16T00:42:50.216Z,11.20
2019-01-16T00:43:50.386Z,8.40
2019-01-16T00:44:50.654Z,9.30
2019-01-16T00:45:50.683Z,8.70
2019-01-16T00:46:50.860Z,8.70
2019-01-16T00:47:51.022Z,9.50
2019-01-16T00:48:51.143Z,9.50
2019-01-16T00:49:51.347Z,9.40
2019-01-16T00:50:51.467Z,9.30
2019-01-16T00:51:51.634Z,9.10
2019-01-16T00:52:51.823Z,8.70
2019-01-16T00:53:51.963Z,8.40
2019-01-16T00:54:52.132Z,8.10
2019-01-16T00:55:52.287Z,7.10
2019-01-16T00:56:52.452Z,8.00
2019-01-16T00:57:52.614Z,10.20
2019-01-16T00:58:52.781Z,8.90
2019-01-16T00:59:52.919Z,10.20
2019-01-16T01:00:53.076Z,7.00
2019-01-16T01:01:53.321Z,10.20
2019-01-16T01:02:53.414Z,6.60
2019-01-16T01:03:53.549Z,7.60
2019-01-16T01:04:53.721Z,6.90
2019-01-16T01:05:53.841Z,7.50
2019-01-16T01:06:54.027Z,9.40
2019-01-16T01:07:54.181Z,8.40
2019-01-16T01:08:54.317Z,7.40
2019-01-16T01:09:54.614Z,8.50
2019-01-16T01:10:54.603Z,6.70
2019-01-16T01:11:54.770Z,5.80
2019-01-16T01:12:54.949Z,6.80
2019-01-16T01:13:55.081Z,7.30
2019-01-16T01:14:55.277Z,4.80
2019-01-16T01:15:55.393Z,6.20
2019-01-16T01:16:55.534Z,7.10
2019-01-16T01:17:56.018Z,8.30
2019-01-16T01:18:55.836Z,10.00
2019-01-16T01:19:56.019Z,8.60
2019-01-16T01:20:56.137Z,7.40
2019-01-16T01:21:56.276Z,8.90
2019-01-16T01:22:56.467Z,8.40
2019-01-16T01:23:56.611Z,6.40
2019-01-16T01:24:56.803Z,6.90
2019-01-16T01:25:56.972Z,8.10
2019-01-16T01:26:57.052Z,8.20
2019-01-16T01:27:57.218Z,7.80
2019-01-16T01:28:57.367Z,7.70
2019-01-16T01:29:57.565Z,6.20
2019-01-16T01:30:57.683Z,5.90
2019-01-16T01:31:57.842Z,7.40
2019-01-16T01:32:58.017Z,8.20
2019-01-16T01:33:58.187Z,6.10
2019-01-16T01:34:58.357Z,8.90
2019-01-16T01:35:58.457Z,6.00
2019-01-16T01:36:58.611Z,6.50
2019-01-16T01:37:58.781Z,9.10
2019-01-16T01:38:58.914Z,8.40
2019-01-16T01:39:59.091Z,8.60
2019-01-16T01:40:59.223Z,8.70
2019-01-16T01:41:59.382Z,10.10
2019-01-16T01:42:59.646Z,10.60
2019-01-16T01:43:59.660Z,10.00
2019-01-16T01:44:59.837Z,11.20
2019-01-16T01:46:00.008Z,8.70
2019-01-16T01:47:00.141Z,9.70
2019-01-16T01:48:00.319Z,9.20
2019-01-16T01:49:00.449Z,10.30
2019-01-16T01:50:00.590Z,8.00
2019-01-16T01:51:00.877Z,9.80
2019-01-16T01:52:00.915Z,9.50
2019-01-16T01:53:01.076Z,10.00
2019-01-16T01:54:01.219Z,9.70
2019-01-16T01:55:01.358Z,9.90
2019-01-16T01:56:01.558Z,9.70
2019-01-16T01:57:01.708Z,7.60
2019-01-16T01:58:01.878Z,8.70
2019-01-16T01:59:02.077Z,11.60
2019-01-16T02:00:02.146Z,6.90
2019-01-16T02:01:02.328Z,8.70
2019-01-16T02:02:02.463Z,9.90
2019-01-16T02:03:02.632Z,8.60
2019-01-16T02:04:02.769Z,8.60
2019-01-16T02:05:02.923Z,8.70
2019-01-16T02:06:03.107Z,9.00
2019-01-16T02:07:03.271Z,8.80
2019-01-16T02:08:03.373Z,9.00
2019-01-16T02:09:03.515Z,8.60
2019-01-16T02:10:03.671Z,9.00
2019-01-16T02:11:03.845Z,12.00
2019-01-16T02:12:03.977Z,9.60
2019-01-16T02:13:04.363Z,8.80
2019-01-16T02:14:04.285Z,8.80
2019-01-16T02:15:10.905Z,11.30
2019-01-16T02:16:04.729Z,10.60
2019-01-16T02:17:04.759Z,9.00
2019-01-16T02:18:04.918Z,9.80
2019-01-16T02:19:05.151Z,8.50
2019-01-16T02:20:05.312Z,9.00
2019-01-16T02:21:05.508Z,11.90
2019-01-16T02:22:05.627Z,11.60
2019-01-16T02:23:05.816Z,11.60
2019-01-16T02:24:06.039Z,8.70
2019-01-16T02:25:06.104Z,9.20
2019-01-16T02:26:06.288Z,9.80
2019-01-16T02:27:06.401Z,8.20
2019-01-16T02:28:06.575Z,9.50
2019-01-16T02:29:06.694Z,11.90
2019-01-16T02:30:06.862Z,9.80
2019-01-16T02:31:07.057Z,11.10
2019-01-16T02:32:07.244Z,8.50
2019-01-16T02:33:07.338Z,11.60
2019-01-16T02:34:07.454Z,11.80
2019-01-16T02:35:07.621Z,12.30
2019-01-16T02:36:07.821Z,10.80
2019-01-16T02:37:07.940Z,9.10
2019-01-16T02:38:08.105Z,10.40
2019-01-16T02:39:08.248Z,11.70
2019-01-16T02:40:08.446Z,12.00
2019-01-16T02:41:08.573Z,13.30
2019-01-16T02:42:14.388Z,11.30
2019-01-16T02:43:08.868Z,14.30
2019-01-16T02:44:09.005Z,11.90
2019-01-16T02:45:09.157Z,10.90
2019-01-16T02:46:09.325Z,11.20
2019-01-16T02:47:09.441Z,14.20
2019-01-16T02:48:09.656Z,11.80
2019-01-16T02:49:09.773Z,13.30
2019-01-16T02:50:09.928Z,12.50
2019-01-16T02:51:10.107Z,12.80
2019-01-16T02:52:10.233Z,12.10
2019-01-16T02:53:10.383Z,11.70
2019-01-16T02:54:10.538Z,13.40
2019-01-16T02:55:10.699Z,13.30
2019-01-16T02:56:10.913Z,12.70
2019-01-16T02:57:11.092Z,14.80
2019-01-16T02:58:11.158Z,12.80
2019-01-16T02:59:11.323Z,13.20
2019-01-16T03:00:11.479Z,9.30
2019-01-16T03:01:11.664Z,11.90
2019-01-16T03:02:11.782Z,13.70
2019-01-16T03:03:11.922Z,12.10
2019-01-16T03:04:12.105Z,14.70
2019-01-16T03:05:12.334Z,10.10
2019-01-16T03:06:12.426Z,11.60
2019-01-16T03:07:12.536Z,14.60
2019-01-16T03:08:12.691Z,13.70
2019-01-16T03:09:12.886Z,16.80
2019-01-16T03:10:13.018Z,15.80
2019-01-16T03:11:13.202Z,13.90
2019-01-16T03:12:13.320Z,16.70
2019-01-16T03:13:13.551Z,13.50
2019-01-16T03:14:13.630Z,14.40
2019-01-16T03:15:13.783Z,14.50
2019-01-16T03:16:13.965Z,15.40
2019-01-16T03:17:14.084Z,12.60
2019-01-16T03:18:14.255Z,16.90
2019-01-16T03:19:14.415Z,16.40
2019-01-16T03:20:14.536Z,14.40
2019-01-16T03:21:14.778Z,16.60
2019-01-16T03:22:14.840Z,16.70
2019-01-16T03:23:15.016Z,19.30
2019-01-16T03:24:15.213Z,18.60
2019-01-16T03:25:15.286Z,19.90
2019-01-16T03:26:15.489Z,19.60
2019-01-16T03:27:15.622Z,21.20
2019-01-16T03:28:15.780Z,18.80
2019-01-16T03:29:15.999Z,20.60
2019-01-16T03:30:16.110Z,22.50
2019-01-16T03:31:16.290Z,18.80
2019-01-16T03:32:16.418Z,22.70
2019-01-16T03:33:16.562Z,24.10
2019-01-16T03:34:16.731Z,21.90
2019-01-16T03:35:16.866Z,20.20
2019-01-16T03:36:17.039Z,19.70
2019-01-16T03:37:17.171Z,19.40
2019-01-16T03:38:17.472Z,20.20
2019-01-16T03:39:17.499Z,22.60
2019-01-16T03:40:17.634Z,22.80
2019-01-16T03:41:17.787Z,21.20
2019-01-16T03:42:17.930Z,24.10
2019-01-16T03:43:18.122Z,26.20
2019-01-16T03:44:18.256Z,17.60
2019-01-16T03:45:18.396Z,24.70
2019-01-16T03:46:18.636Z,23.40
2019-01-16T03:47:18.713Z,24.10
2019-01-16T03:48:18.859Z,20.20
2019-01-16T03:49:19.032Z,26.30
2019-01-16T03:50:19.158Z,24.00
2019-01-16T03:51:19.328Z,23.10
2019-01-16T03:52:19.448Z,25.30
2019-01-16T03:53:19.850Z,24.10
2019-01-16T03:54:20.124Z,24.80
2019-01-16T03:55:20.148Z,23.70
2019-01-16T03:56:20.318Z,26.60
2019-01-16T03:57:20.485Z,24.70
2019-01-16T03:58:20.605Z,23.80
2019-01-16T03:59:20.790Z,23.50
2019-01-16T04:00:20.942Z,22.80
2019-01-16T04:01:21.096Z,25.20
2019-01-16T04:02:21.338Z,25.40
2019-01-16T04:03:21.397Z,26.50
2019-01-16T04:04:21.560Z,27.60
2019-01-16T04:05:21.720Z,31.10
2019-01-16T04:06:21.873Z,24.30
2019-01-16T04:07:22.062Z,25.80
2019-01-16T04:08:22.198Z,27.10
2019-01-16T04:09:22.369Z,28.40
2019-01-16T04:10:22.511Z,31.40
2019-01-16T04:11:22.743Z,32.30
2019-01-16T04:12:22.837Z,30.60
2019-01-16T04:13:22.968Z,31.60
2019-01-16T04:14:23.164Z,30.90
2019-01-16T04:15:23.258Z,31.00
2019-01-16T04:16:23.428Z,31.30
2019-01-16T04:17:24.968Z,28.00
2019-01-16T04:18:23.755Z,32.10
2019-01-16T04:19:24.029Z,33.00
2019-01-16T04:20:24.038Z,27.50
2019-01-16T04:21:24.201Z,29.10
2019-01-16T04:22:24.373Z,28.10
2019-01-16T04:23:24.509Z,30.20
2019-01-16T04:24:24.702Z,32.90
2019-01-16T04:25:24.826Z,31.70
2019-01-16T04:26:24.967Z,36.30
2019-01-16T04:27:25.246Z,30.40
2019-01-16T04:28:25.282Z,30.50
2019-01-16T04:29:25.451Z,26.30
2019-01-16T04:30:25.595Z,31.00
2019-01-16T04:31:25.720Z,29.80
2019-01-16T04:32:25.921Z,31.30
2019-01-16T04:33:26.045Z,33.50
2019-01-16T04:34:26.212Z,31.00
2019-01-16T04:35:26.406Z,31.90
2019-01-16T04:36:26.476Z,29.30
2019-01-16T04:37:26.674Z,31.00
2019-01-16T04:38:26.802Z,31.80
2019-01-16T04:39:26.970Z,30.90
2019-01-16T04:40:27.102Z,31.10
2019-01-16T04:41:27.254Z,33.00
2019-01-16T04:42:27.444Z,33.50
2019-01-16T04:43:27.586Z,31.60
2019-01-16T04:44:27.761Z,30.90
2019-01-16T04:45:27.878Z,30.30
2019-01-16T04:46:28.030Z,35.80
2019-01-16T04:47:28.217Z,38.40
2019-01-16T04:48:28.336Z,31.50
2019-01-16T04:49:30.472Z,33.50
2019-01-16T04:50:28.645Z,31.50
2019-01-16T04:51:28.838Z,31.90
2019-01-16T04:52:29.126Z,29.40
2019-01-16T04:53:29.087Z,35.30
2019-01-16T04:54:29.258Z,35.20
2019-01-16T04:55:29.408Z,34.60
2019-01-16T04:56:29.563Z,34.50
2019-01-16T04:57:29.743Z,34.10
2019-01-16T04:58:29.871Z,28.00
2019-01-16T04:59:30.041Z,32.90
2019-01-16T05:00:30.287Z,32.00
2019-01-16T05:01:30.325Z,30.80
2019-01-16T05:02:30.518Z,27.10
2019-01-16T05:03:30.643Z,31.90
2019-01-16T05:04:30.779Z,30.20
2019-01-16T05:05:30.942Z,31.70
2019-01-16T05:06:31.104Z,33.60
2019-01-16T05:07:31.328Z,28.30
2019-01-16T05:08:31.453Z,32.10
2019-01-16T05:09:31.547Z,33.20
2019-01-16T05:10:31.705Z,34.60
2019-01-16T05:11:31.877Z,32.90
2019-01-16T05:12:32.079Z,32.10
2019-01-16T05:13:32.183Z,35.00
2019-01-16T05:14:32.346Z,30.20
2019-01-16T05:15:32.513Z,28.50
2019-01-16T05:16:32.709Z,31.00
2019-01-16T05:17:32.813Z,29.80
2019-01-16T05:18:32.956Z,31.20
2019-01-16T05:19:38.559Z,29.90
2019-01-16T05:20:34.257Z,32.50
2019-01-16T05:21:33.398Z,28.70
2019-01-16T05:22:33.559Z,30.20
2019-01-16T05:23:33.709Z,32.20
2019-01-16T05:24:33.897Z,28.10
2019-01-16T05:25:34.091Z,29.40
2019-01-16T05:26:34.184Z,32.50
2019-01-16T05:27:34.325Z,31.20
2019-01-16T05:28:34.460Z,29.20
2019-01-16T05:29:34.631Z,28.30
2019-01-16T05:30:34.806Z,27.10
2019-01-16T05:31:35.702Z,34.90
2019-01-16T05:32:35.123Z,28.50
2019-01-16T05:33:35.347Z,27.30
2019-01-16T05:34:35.395Z,31.90
2019-01-16T05:35:35.566Z,30.30
2019-01-16T05:36:35.712Z,25.70
2019-01-16T05:37:35.871Z,22.40
2019-01-16T05:38:35.986Z,21.20
2019-01-16T05:39:36.143Z,25.80
2019-01-16T05:40:36.344Z,25.70
2019-01-16T05:41:36.699Z,22.70
2019-01-16T05:42:36.634Z,23.80
2019-01-16T05:43:36.755Z,21.60
2019-01-16T05:44:36.926Z,22.30
2019-01-16T05:45:37.117Z,22.50
2019-01-16T05:46:37.254Z,23.00
2019-01-16T05:47:37.421Z,26.20
2019-01-16T05:48:37.554Z,22.60
2019-01-16T05:49:37.776Z,19.80
2019-01-16T05:50:37.861Z,20.00
2019-01-16T05:51:38.027Z,22.40
2019-01-16T05:52:38.190Z,23.10
2019-01-16T05:53:38.324Z,20.60
2019-01-16T05:54:38.479Z,20.40
2019-01-16T05:55:38.651Z,22.60
2019-01-16T05:56:38.808Z,21.50
2019-01-16T05:57:39.001Z,20.90
2019-01-16T05:58:39.098Z,18.30
2019-01-16T05:59:39.233Z,17.10
2019-01-16T06:00:39.412Z,18.80
2019-01-16T06:01:39.563Z,18.00
2019-01-16T06:02:39.719Z,17.90
2019-01-16T06:03:39.868Z,18.40
2019-01-16T06:04:40.029Z,20.80
2019-01-16T06:05:40.217Z,20.50
2019-01-16T06:06:40.438Z,19.50
2019-01-16T06:07:40.484Z,16.50
2019-01-16T06:08:40.655Z,19.20
2019-01-16T06:09:40.809Z,18.10
2019-01-16T06:10:40.977Z,18.80
2019-01-16T06:11:41.130Z,17.10
2019-01-16T06:12:41.251Z,19.80
2019-01-16T06:13:41.426Z,21.00
2019-01-16T06:14:41.725Z,21.00
2019-01-16T06:15:41.762Z,21.30
2019-01-16T06:16:41.895Z,18.80
2019-01-16T06:17:42.041Z,19.40
2019-01-16T06:18:42.239Z,17.30
2019-01-16T06:19:42.390Z,20.00
2019-01-16T06:20:42.563Z,17.70
2019-01-16T06:21:42.703Z,21.20
2019-01-16T06:22:42.922Z,14.60
2019-01-16T06:23:43.011Z,16.10
2019-01-16T06:24:43.176Z,17.00
2019-01-16T06:25:43.342Z,20.80
2019-01-16T06:26:43.485Z,17.00
2019-01-16T06:27:43.630Z,18.50
2019-01-16T06:28:43.803Z,19.60
2019-01-16T06:29:43.940Z,17.10
2019-01-16T06:30:44.203Z,20.20
2019-01-16T06:31:44.227Z,18.20
2019-01-16T06:32:44.387Z,19.80
2019-01-16T06:33:44.562Z,20.70
2019-01-16T06:34:44.704Z,19.70
2019-01-16T06:35:44.853Z,19.30
2019-01-16T06:36:44.998Z,22.30
2019-01-16T06:37:45.144Z,22.90
2019-01-16T06:38:45.389Z,21.30
2019-01-16T06:39:45.501Z,21.00
2019-01-16T06:40:45.623Z,18.70
2019-01-16T06:41:45.780Z,21.20
2019-01-16T06:42:45.934Z,24.30
2019-01-16T06:43:46.109Z,21.00
2019-01-16T06:44:46.297Z,20.10
2019-01-16T06:45:46.415Z,21.80
2019-01-16T06:46:46.563Z,22.00
2019-01-16T06:47:46.810Z,24.90
2019-01-16T06:48:46.871Z,23.80
2019-01-16T06:49:47.060Z,25.30
2019-01-16T06:50:47.182Z,23.20
2019-01-16T06:51:47.300Z,27.90
2019-01-16T06:52:47.468Z,26.60
2019-01-16T06:53:47.636Z,26.50
2019-01-16T06:54:47.781Z,25.30
2019-01-16T06:55:48.085Z,24.30
2019-01-16T06:56:48.060Z,24.20
2019-01-16T06:57:48.231Z,26.80
2019-01-16T06:58:48.404Z,24.30
2019-01-16T06:59:48.543Z,22.50
2019-01-16T07:00:48.725Z,21.60
2019-01-16T07:01:48.850Z,25.20
2019-01-16T07:02:48.989Z,28.60
2019-01-16T07:03:49.230Z,23.90
2019-01-16T07:04:49.293Z,26.10
2019-01-16T07:05:49.469Z,24.90
2019-01-16T07:06:49.604Z,24.10
2019-01-16T07:07:49.746Z,25.20
2019-01-16T07:08:49.930Z,23.10
2019-01-16T07:09:50.282Z,26.30
2019-01-16T07:10:50.234Z,23.50
2019-01-16T07:11:50.409Z,25.40
2019-01-16T07:12:50.507Z,24.00
2019-01-16T07:13:50.667Z,23.10
2019-01-16T07:14:50.800Z,24.70
2019-01-16T07:15:50.985Z,25.40
2019-01-16T07:16:51.139Z,25.50
2019-01-16T07:17:51.298Z,24.20
2019-01-16T07:18:51.467Z,25.20
2019-01-16T07:19:51.630Z,23.90
2019-01-16T07:20:51.783Z,27.40
2019-01-16T07:21:51.922Z,24.60
2019-01-16T07:22:56.449Z,26.60
2019-01-16T07:23:52.249Z,26.20
2019-01-16T07:24:54.388Z,27.20
2019-01-16T07:25:52.540Z,26.30
2019-01-16T07:26:52.710Z,25.70
2019-01-16T07:27:52.852Z,25.40
2019-01-16T07:28:53.160Z,30.50
2019-01-16T07:29:53.133Z,27.60
2019-01-16T07:30:53.317Z,23.90
2019-01-16T07:31:53.473Z,27.10
2019-01-16T07:32:53.605Z,25.50
2019-01-16T07:33:53.781Z,23.00
2019-01-16T07:34:53.912Z,25.00
2019-01-16T07:35:54.088Z,24.30
2019-01-16T07:36:54.358Z,22.70
2019-01-16T07:37:54.369Z,25.40
2019-01-16T07:38:54.552Z,23.70
2019-01-16T07:39:54.679Z,23.70
2019-01-16T07:40:54.834Z,23.80
2019-01-16T07:41:54.985Z,22.50
2019-01-16T07:42:55.158Z,24.20
2019-01-16T07:43:55.308Z,24.00
2019-01-16T07:44:55.478Z,27.60
2019-01-16T07:45:55.597Z,23.60
2019-01-16T07:46:55.741Z,25.00
2019-01-16T07:47:55.878Z,23.00
2019-01-16T07:48:56.064Z,23.90
2019-01-16T07:49:56.202Z,22.50
2019-01-16T07:50:56.373Z,24.00
2019-01-16T07:51:56.527Z,24.70
2019-01-16T07:52:56.696Z,22.60
2019-01-16T07:53:56.809Z,23.00
2019-01-16T07:54:56.972Z,24.00
2019-01-16T07:55:57.147Z,24.20
2019-01-16T07:56:57.303Z,23.60
2019-01-16T07:57:57.443Z,22.30
2019-01-16T07:58:57.613Z,24.10
2019-01-16T07:59:57.729Z,21.80
2019-01-16T08:00:57.931Z,23.00
2019-01-16T08:01:58.188Z,21.70
2019-01-16T08:02:59.716Z,24.00
2019-01-16T08:03:58.390Z,24.80
2019-01-16T08:04:58.527Z,21.20
2019-01-16T08:05:58.704Z,24.50
2019-01-16T08:06:58.867Z,22.30
2019-01-16T08:07:59.007Z,20.30
2019-01-16T08:08:59.177Z,22.70
2019-01-16T08:09:59.429Z,21.00
2019-01-16T08:10:59.475Z,22.30
2019-01-16T08:11:59.624Z,22.40
2019-01-16T08:12:59.763Z,21.90
2019-01-16T08:13:59.940Z,22.50
2019-01-16T08:15:00.066Z,22.40
2019-01-16T08:16:00.257Z,21.60
2019-01-16T08:17:00.433Z,21.50
2019-01-16T08:18:00.643Z,21.70
2019-01-16T08:19:00.699Z,20.20
2019-01-16T08:20:00.864Z,20.50
2019-01-16T08:21:01.003Z,20.30
2019-01-16T08:22:01.179Z,21.10
2019-01-16T08:23:01.309Z,21.50
2019-01-16T08:24:01.471Z,20.90
2019-01-16T08:25:01.636Z,22.60
2019-01-16T08:26:01.840Z,17.90
2019-01-16T08:27:01.954Z,19.70
2019-01-16T08:28:02.110Z,18.80
2019-01-16T08:29:02.267Z,19.30
2019-01-16T08:30:02.433Z,20.50
2019-01-16T08:31:02.595Z,20.80
2019-01-16T08:32:02.737Z,19.80
2019-01-16T08:33:02.859Z,19.30
2019-01-16T08:34:03.050Z,17.40
2019-01-16T08:35:03.231Z,19.20
2019-01-16T08:36:03.346Z,18.40
2019-01-16T08:37:03.652Z,20.10
2019-01-16T08:38:03.630Z,19.00
2019-01-16T08:39:03.797Z,19.40
2019-01-16T08:40:03.969Z,17.40
2019-01-16T08:41:04.142Z,18.30
2019-01-16T08:42:04.323Z,21.00
2019-01-16T08:43:04.541Z,18.90
2019-01-16T08:44:04.572Z,18.90
2019-01-16T08:45:04.740Z,24.40
2019-01-16T08:46:04.888Z,16.50
2019-01-16T08:47:05.278Z,16.70
2019-01-16T08:48:05.173Z,17.80
2019-01-16T08:49:05.332Z,17.30
2019-01-16T08:50:05.502Z,18.30
2019-01-16T08:51:05.719Z,16.20
2019-01-16T08:52:05.831Z,17.00
2019-01-16T08:53:05.948Z,16.90
2019-01-16T08:54:06.105Z,18.60
2019-01-16T08:55:06.291Z,19.40
2019-01-16T08:56:06.427Z,19.30
2019-01-16T08:57:06.623Z,18.00
2019-01-16T08:58:06.751Z,17.30
2019-01-16T08:59:06.963Z,15.40
2019-01-16T09:00:07.034Z,15.70
2019-01-16T09:01:07.202Z,15.90
2019-01-16T09:02:07.369Z,16.30
2019-01-16T09:03:07.965Z,14.80
2019-01-16T09:04:07.657Z,14.50
2019-01-16T09:05:07.831Z,13.50
2019-01-16T09:06:07.950Z,15.70
2019-01-16T09:07:08.202Z,16.80
2019-01-16T09:08:08.280Z,14.10
2019-01-16T09:09:08.410Z,16.20
2019-01-16T09:10:08.580Z,16.20
2019-01-16T09:11:08.707Z,16.60
2019-01-16T09:12:08.884Z,16.00
2019-01-16T09:13:09.040Z,15.80
2019-01-16T09:14:09.188Z,16.40
2019-01-16T09:15:09.432Z,15.90
2019-01-16T09:16:09.532Z,16.30
2019-01-16T09:17:09.657Z,15.00
2019-01-16T09:18:09.804Z,14.60
2019-01-16T09:19:09.959Z,17.50
2019-01-16T09:20:10.130Z,15.20
2019-01-16T09:21:10.261Z,16.70
2019-01-16T09:22:10.433Z,14.00
2019-01-16T09:23:10.559Z,14.60
2019-01-16T09:24:10.820Z,16.70
2019-01-16T09:25:10.891Z,17.20
2019-01-16T09:26:11.022Z,15.10
2019-01-16T09:27:11.178Z,17.20
2019-01-16T09:28:11.348Z,19.30
2019-01-16T09:29:11.526Z,14.10
2019-01-16T09:30:11.688Z,15.40
2019-01-16T09:31:11.832Z,13.90
2019-01-16T09:32:12.107Z,14.20
2019-01-16T09:33:12.126Z,14.70
2019-01-16T09:34:12.313Z,15.60
2019-01-16T09:35:12.469Z,15.80
2019-01-16T09:36:12.607Z,14.40
2019-01-16T09:37:12.760Z,15.70
2019-01-16T09:38:12.930Z,13.10
2019-01-16T09:39:13.068Z,14.50
2019-01-16T09:40:13.292Z,17.00
2019-01-16T09:41:13.356Z,17.40
2019-01-16T09:42:13.521Z,17.60
2019-01-16T09:43:13.695Z,20.80
2019-01-16T09:44:13.845Z,17.00
2019-01-16T09:45:13.989Z,16.40
2019-01-16T09:46:14.132Z,14.90
2019-01-16T09:47:14.315Z,13.80
2019-01-16T09:48:14.729Z,13.90
2019-01-16T09:49:14.606Z,17.20
2019-01-16T09:50:14.770Z,14.80
2019-01-16T09:51:14.887Z,13.70
2019-01-16T09:52:15.056Z,14.90
2019-01-16T09:53:15.231Z,16.50
2019-01-16T09:54:15.378Z,15.20
2019-01-16T09:55:15.528Z,13.10
2019-01-16T09:56:15.682Z,12.40
2019-01-16T09:57:15.847Z,13.30
2019-01-16T09:58:15.996Z,14.70
2019-01-16T09:59:16.140Z,13.60
2019-01-16T10:00:16.298Z,14.60
2019-01-16T10:01:16.427Z,17.90
2019-01-16T10:02:16.567Z,15.60
2019-01-16T10:03:16.758Z,15.20
2019-01-16T10:04:16.913Z,14.90
2019-01-16T10:05:17.167Z,15.10
2019-01-16T10:06:17.179Z,14.30
2019-01-16T10:07:17.348Z,12.30
2019-01-16T10:08:17.531Z,15.10
2019-01-16T10:09:17.690Z,13.30
2019-01-16T10:10:17.841Z,12.20
2019-01-16T10:11:17.978Z,12.30
2019-01-16T10:12:18.116Z,13.20
2019-01-16T10:13:18.387Z,11.80
2019-01-16T10:14:18.439Z,14.40
2019-01-16T10:15:18.594Z,12.40
2019-01-16T10:16:18.728Z,13.80
2019-01-16T10:17:18.884Z,11.90
2019-01-16T10:18:19.038Z,13.40
2019-01-16T10:19:19.211Z,12.00
2019-01-16T10:20:19.382Z,14.00
2019-01-16T10:21:19.567Z,14.20
2019-01-16T10:22:19.648Z,12.10
2019-01-16T10:23:20.044Z,13.20
2019-01-16T10:24:19.961Z,12.40
2019-01-16T10:25:20.108Z,13.00
2019-01-16T10:26:20.259Z,11.30
2019-01-16T10:27:20.416Z,11.00
2019-01-16T10:28:20.592Z,11.60
2019-01-16T10:29:20.786Z,11.50
2019-01-16T10:30:20.914Z,14.70
2019-01-16T10:31:21.025Z,15.60
2019-01-16T10:32:21.184Z,12.90
2019-01-16T10:33:21.339Z,11.90
2019-01-16T10:34:21.499Z,11.60
2019-01-16T10:35:21.653Z,13.40
2019-01-16T10:36:21.783Z,12.70
2019-01-16T10:37:21.967Z,13.80
2019-01-16T10:38:22.242Z,14.60
2019-01-16T10:39:22.266Z,10.80
2019-01-16T10:40:22.393Z,10.70
2019-01-16T10:41:22.582Z,11.50
2019-01-16T10:42:22.753Z,13.10
2019-01-16T10:43:22.919Z,12.00
2019-01-16T10:44:23.062Z,13.70
2019-01-16T10:45:23.205Z,12.50
2019-01-16T10:46:23.500Z,12.80
2019-01-16T10:47:23.535Z,12.30
2019-01-16T10:48:23.704Z,10.60
2019-01-16T10:49:23.857Z,10.90
2019-01-16T10:50:23.995Z,10.30
2019-01-16T10:51:24.160Z,10.40
2019-01-16T10:52:24.285Z,10.30
2019-01-16T10:53:24.466Z,11.80
2019-01-16T10:54:24.688Z,12.80
2019-01-16T10:55:24.741Z,11.50
2019-01-16T10:56:24.910Z,13.60
2019-01-16T10:57:25.040Z,10.40
2019-01-16T10:58:25.221Z,9.00
2019-01-16T10:59:25.391Z,10.20
2019-01-16T11:00:25.530Z,12.50
2019-01-16T11:01:25.695Z,11.30
2019-01-16T11:02:25.871Z,10.20
2019-01-16T11:03:25.963Z,10.60
2019-01-16T11:04:26.145Z,10.10
2019-01-16T11:05:26.274Z,11.20
2019-01-16T11:06:26.453Z,13.30
2019-01-16T11:07:26.596Z,12.20
2019-01-16T11:08:26.766Z,23.30
2019-01-16T11:09:26.902Z,15.30
2019-01-16T11:10:27.107Z,13.20
2019-01-16T11:11:27.317Z,9.70
2019-01-16T11:12:27.377Z,9.20
2019-01-16T11:13:27.577Z,9.00
2019-01-16T11:14:27.674Z,10.80
2019-01-16T11:15:27.853Z,10.20
2019-01-16T11:16:28.019Z,10.00
2019-01-16T11:17:28.160Z,10.90
2019-01-16T11:18:28.334Z,10.70
2019-01-16T11:19:28.565Z,12.30
2019-01-16T11:20:28.636Z,9.70
2019-01-16T11:21:28.786Z,9.60
2019-01-16T11:22:28.920Z,10.10
2019-01-16T11:23:29.085Z,11.10
2019-01-16T11:24:29.223Z,9.90
2019-01-16T11:25:29.378Z,8.90
2019-01-16T11:26:29.556Z,8.70
2019-01-16T11:27:29.804Z,10.90
2019-01-16T11:28:29.865Z,11.70
2019-01-16T11:29:30.003Z,10.20
2019-01-16T11:30:30.161Z,8.90
2019-01-16T11:31:30.326Z,9.00
2019-01-16T11:32:30.482Z,11.00
2019-01-16T11:33:30.649Z,8.10
2019-01-16T11:34:30.792Z,8.50
2019-01-16T11:35:30.990Z,9.70
2019-01-16T11:36:31.074Z,7.10
2019-01-16T11:37:31.235Z,9.30
2019-01-16T11:38:31.421Z,8.30
2019-01-16T11:39:31.557Z,9.00
2019-01-16T11:40:31.727Z,8.50
2019-01-16T11:41:31.878Z,9.70
2019-01-16T11:42:32.013Z,8.80
2019-01-16T11:43:32.191Z,8.10
2019-01-16T11:44:32.334Z,9.20
2019-01-16T11:45:32.518Z,8.50
2019-01-16T11:46:32.668Z,8.10
2019-01-16T11:47:32.804Z,10.10
2019-01-16T11:48:32.943Z,8.10
2019-01-16T11:49:33.124Z,11.80
2019-01-16T11:50:33.311Z,8.40
2019-01-16T11:51:33.804Z,8.70
2019-01-16T11:52:33.688Z,9.10
2019-01-16T11:53:33.738Z,8.90
2019-01-16T11:54:33.918Z,7.20
2019-01-16T11:55:34.072Z,6.90
2019-01-16T11:56:34.218Z,9.60
2019-01-16T11:57:34.363Z,9.80
2019-01-16T11:58:34.520Z,8.90
2019-01-16T11:59:34.672Z,7.90
2019-01-16T12:00:34.940Z,7.90
2019-01-16T12:01:34.990Z,8.60
2019-01-16T12:02:38.489Z,7.20
2019-01-16T12:03:35.282Z,8.00
2019-01-16T12:04:35.444Z,7.90
2019-01-16T12:05:35.606Z,7.50
2019-01-16T12:06:35.780Z,7.00
2019-01-16T12:07:35.918Z,7.90
2019-01-16T12:08:36.133Z,8.20
2019-01-16T12:09:36.201Z,8.40
2019-01-16T12:10:36.389Z,6.90
2019-01-16T12:11:36.553Z,9.00
2019-01-16T12:12:36.688Z,8.30
2019-01-16T12:13:36.849Z,9.20
2019-01-16T12:14:37.014Z,6.40
2019-01-16T12:15:37.160Z,6.60
2019-01-16T12:16:37.412Z,9.40
2019-01-16T12:17:37.438Z,7.30
2019-01-16T12:18:37.596Z,7.30
2019-01-16T12:19:37.761Z,6.40
2019-01-16T12:20:37.902Z,7.60
2019-01-16T12:21:38.076Z,7.90
2019-01-16T12:22:38.198Z,7.40
2019-01-16T12:23:38.369Z,7.90
2019-01-16T12:24:38.594Z,6.20
2019-01-16T12:25:38.918Z,6.50
2019-01-16T12:26:38.851Z,8.10
2019-01-16T12:27:38.978Z,6.30
2019-01-16T12:28:39.140Z,7.10
2019-01-16T12:29:39.310Z,6.40
2019-01-16T12:30:39.457Z,7.50
2019-01-16T12:31:39.619Z,7.00
2019-01-16T12:32:39.786Z,6.60
2019-01-16T12:33:40.022Z,6.10
2019-01-16T12:34:40.067Z,7.60
2019-01-16T12:35:40.218Z,6.50
2019-01-16T12:36:40.388Z,6.90
2019-01-16T12:37:40.532Z,6.80
2019-01-16T12:38:40.659Z,6.70
2019-01-16T12:39:40.841Z,6.60
2019-01-16T12:40:40.972Z,5.70
2019-01-16T12:41:41.238Z,5.30
2019-01-16T12:42:41.292Z,7.10
2019-01-16T12:43:41.507Z,7.80
2019-01-16T12:44:41.630Z,7.70
2019-01-16T12:45:41.791Z,9.70
2019-01-16T12:46:41.918Z,8.30
2019-01-16T12:47:42.071Z,8.20
2019-01-16T12:48:42.210Z,7.80
2019-01-16T12:49:42.419Z,7.10
2019-01-16T12:50:42.531Z,5.80
2019-01-16T12:51:42.675Z,6.80
2019-01-16T12:52:42.845Z,5.90
2019-01-16T12:53:42.998Z,6.60
2019-01-16T12:54:43.154Z,6.10
2019-01-16T12:55:43.327Z,7.10
2019-01-16T12:56:43.477Z,5.80
2019-01-16T12:57:43.736Z,7.10
2019-01-16T12:58:43.779Z,6.70
2019-01-16T12:59:43.952Z,6.10
2019-01-16T13:00:44.103Z,6.70
2019-01-16T13:01:44.254Z,6.10